Latest Weather Observations for Geelong Racecourse

IDV60801

Issued at 11:02 am EST Tuesday 28 July 2015 (issued every 30 minutes, with the page automatically refreshed every 10 minutes)

About weather observations | Map of weather stations | Latest weather observations for VIC | Other Formats
Station Details ID: 087184 Name: GEELONG RACECOURSE Lat: -38.17 Lon: 144.38 Height: 12.9 m
Data from the previous 72 hours. | See also: Recent months at Geelong Racecourse
Date/Time
EST
Temp
°C
App
Temp
°C
Dew
Point
Rel
Hum
%
Delta-T
°C
Wind Press
QNH
hPa
Press
MSL
hPa
Rain
since 9 am
mm
Dir
 
Spd
km/h
Gust
km/h
Spd
kts
Gust
kts
28/11:00am 9.0 5.7 7.9 93 0.5 W 15 20 8 11 1035.2 1035.3 0.0
28/10:30am 8.4 4.2 7.3 93 0.5 WNW 19 32 10 17 1035.2 1035.3 0.0
28/10:00am 7.5 4.2 6.6 94 0.4 WNW 13 20 7 11 1035.3 1035.4 0.0
28/09:30am 7.0 2.9 6.1 94 0.4 WNW 17 24 9 13 1035.3 1035.4 0.0
28/09:00am 6.7 1.6 5.8 94 0.4 WNW 22 32 12 17 1035.0 1035.1 0.0
28/08:30am 6.7 2.1 5.7 93 0.4 WNW 19 30 10 16 1034.6 1034.7 0.0
28/08:00am 7.3 4.0 6.2 93 0.5 WNW 13 24 7 13 1034.4 1034.5 0.0
28/07:30am 7.1 4.1 6.0 93 0.5 WNW 11 20 6 11 1034.1 1034.2 0.0
28/07:00am 6.7 3.3 5.7 93 0.4 WNW 13 20 7 11 1033.7 1033.8 0.0
28/06:30am 7.2 3.8 6.1 93 0.5 WNW 13 24 7 13 1033.4 1033.5 0.0
28/06:00am 7.1 3.3 6.0 93 0.5 W 15 24 8 13 1033.0 1033.1 0.0
28/05:30am 7.6 3.6 6.5 93 0.5 W 17 22 9 12 1032.6 1032.7 0.0
28/05:00am 7.6 3.9 6.5 93 0.5 W 15 24 8 13 1032.2 1032.3 0.0
28/04:30am 7.6 4.7 6.5 93 0.5 W 11 19 6 10 1032.0 1032.1 0.0
28/04:00am 7.1 5.0 6.0 93 0.5 WNW 6 11 3 6 1032.0 1032.1 0.0
28/03:30am 7.0 4.9 5.9 93 0.5 W 6 9 3 5 1031.9 1032.0 0.0
28/03:00am 7.0 4.4 5.9 93 0.5 WNW 9 13 5 7 1032.0 1032.1 0.0
28/02:30am 6.9 4.2 5.8 93 0.5 WNW 9 13 5 7 1031.9 1032.0 0.0
28/02:00am 6.7 4.0 5.7 93 0.4 WNW 9 13 5 7 1031.7 1031.8 0.0
28/01:30am 6.6 4.3 5.6 93 0.4 WNW 7 13 4 7 1031.3 1031.4 0.0
28/01:00am 6.7 4.4 5.7 93 0.4 WNW 7 13 4 7 1031.2 1031.3 0.0
28/12:30am 6.9 4.2 5.8 93 0.5 WNW 9 17 5 9 1031.3 1031.4 0.0
28/12:00am 7.3 4.0 6.2 93 0.5 WNW 13 24 7 13 1031.2 1031.3 0.0
 
Date/Time
EST
Temp
°C
App
Temp
°C
Dew
Point
Rel
Hum
%
Delta-T
°C
Wind Press
QNH
hPa
Press
MSL
hPa
Rain
since 9 am
mm
Dir
 
Spd
km/h
Gust
km/h
Spd
kts
Gust
kts
27/11:30pm 7.0 4.4 5.9 93 0.5 WNW 9 15 5 8 1031.1 1031.2 0.0
27/11:00pm 7.1 4.1 6.0 93 0.5 NW 11 19 6 10 1031.1 1031.2 0.0
27/10:30pm 7.3 4.0 6.2 93 0.5 NW 13 19 7 10 1030.9 1031.0 0.0
27/10:00pm 7.5 4.6 6.4 93 0.5 NW 11 17 6 9 1030.9 1031.0 0.0
27/09:30pm 7.8 4.9 6.7 93 0.5 WNW 11 19 6 10 1030.9 1031.0 0.0
27/09:00pm 7.9 4.7 6.8 93 0.5 WNW 13 22 7 12 1030.9 1031.0 0.0
27/08:30pm 7.9 4.7 6.8 93 0.5 WNW 13 19 7 10 1030.6 1030.7 0.0
27/08:00pm 8.3 5.9 7.1 92 0.6 WNW 9 15 5 8 1030.7 1030.8 0.0
27/07:30pm 8.3 6.3 7.1 92 0.6 WNW 7 9 4 5 1030.7 1030.8 0.0
27/07:00pm 8.1 6.2 6.9 92 0.6 NW 6 7 3 4 1030.5 1030.6 0.0
27/06:30pm 8.2 6.3 6.7 90 0.7 W 6 9 3 5 1030.2 1030.3 0.0
27/06:00pm 8.4 6.4 7.0 91 0.6 W 7 13 4 7 1029.8 1029.9 0.0
27/05:30pm 9.2 6.8 7.0 86 1.0 W 9 15 5 8 1029.6 1029.7 0.0
27/05:00pm 9.7 6.8 8.0 89 0.8 W 13 26 7 14 1029.3 1029.4 0.0
27/04:30pm 11.1 7.6 7.0 76 2.0 WNW 15 22 8 12 1029.0 1029.1 0.0
27/04:00pm 12.2 7.9 7.1 71 2.4 W 19 28 10 15 1028.8 1028.9 0.0
27/03:30pm 12.1 7.2 6.8 70 2.5 W 22 33 12 18 1028.5 1028.6 0.0
27/03:00pm 12.4 7.7 6.0 65 3.0 W 20 33 11 18 1028.1 1028.2 0.0
27/02:30pm 12.6 7.6 6.4 66 2.9 W 22 33 12 18 1027.7 1027.8 0.0
27/02:00pm 12.5 7.3 7.4 71 2.5 W 24 33 13 18 1027.6 1027.7 0.0
27/01:30pm 12.2 6.9 6.9 70 2.5 W 24 35 13 19 1027.8 1027.9 0.0
27/01:00pm 11.7 6.4 6.8 72 2.3 W 24 35 13 19 1027.9 1028.0 0.0
27/12:30pm 11.2 5.9 6.9 75 2.0 W 24 39 13 21 1028.0 1028.1 0.0
27/12:00pm 10.9 5.4 7.4 79 1.7 W 26 37 14 20 1028.6 1028.7 0.0
27/11:30am 10.6 6.4 7.3 80 1.6 W 19 28 10 15 1028.9 1029.0 0.0
27/11:00am 10.1 5.2 7.0 81 1.5 WNW 22 32 12 17 1028.7 1028.8 0.0
27/10:30am 9.6 6.1 7.0 84 1.2 WNW 15 22 8 12 1028.6 1028.7 0.0
27/10:00am 7.8 4.0 5.8 87 0.9 WNW 15 24 8 13 1028.2 1028.3 0.0
27/09:30am 7.2 3.0 5.8 91 0.6 WNW 17 26 9 14 1027.9 1028.0 0.0
27/09:00am 6.7 2.1 5.5 92 0.5 WNW 19 35 10 19 1027.3 1027.4 0.0
27/08:30am 6.1 1.7 4.9 92 0.5 WNW 17 24 9 13 1026.8 1026.9 0.0
27/08:00am 5.3 1.6 4.3 93 0.4 WNW 13 22 7 12 1026.5 1026.6 0.0
27/07:30am 5.0 0.8 4.0 93 0.4 W 15 24 8 13 1026.3 1026.4 0.0
27/07:00am 5.0 0.5 4.0 93 0.4 WNW 17 26 9 14 1025.9 1026.0 0.0
27/06:30am 4.8 -0.2 3.6 92 0.5 WNW 19 28 10 15 1025.5 1025.6 0.0
27/06:00am 4.7 0.1 3.5 92 0.5 WNW 17 24 9 13 1024.9 1025.0 0.0
27/05:30am 4.7 0.1 3.5 92 0.5 WNW 17 22 9 12 1024.7 1024.8 0.0
27/05:00am 4.8 -0.4 3.6 92 0.5 WNW 20 28 11 15 1024.5 1024.5 0.0
27/04:30am 5.3 0.1 3.8 90 0.6 WNW 20 32 11 17 1024.2 1024.2 0.0
27/04:00am 4.8 0.1 3.3 90 0.6 WNW 17 24 9 13 1024.0 1024.0 0.0
27/03:30am 4.8 0.2 3.6 92 0.5 WNW 17 26 9 14 1023.7 1023.7 0.0
27/03:00am 4.6 0.3 3.4 92 0.5 WNW 15 20 8 11 1023.6 1023.6 0.0
27/02:30am 4.7 -0.3 3.4 91 0.5 WNW 19 26 10 14 1023.2 1023.2 0.0
27/02:00am 4.5 0.2 3.3 92 0.5 NW 15 22 8 12 1023.1 1023.1 0.0
27/01:30am 5.0 0.4 3.7 91 0.5 WNW 17 22 9 12 1022.8 1022.8 0.0
27/01:00am 5.3 0.8 4.0 91 0.5 WNW 17 28 9 15 1022.7 1022.7 0.0
27/12:30am 5.3 0.4 4.1 92 0.5 WNW 19 30 10 16 1022.3 1022.3 0.0
27/12:00am 5.5 0.6 4.3 92 0.5 WNW 19 28 10 15 1022.2 1022.2 0.0
 
Date/Time
EST
Temp
°C
App
Temp
°C
Dew
Point
Rel
Hum
%
Delta-T
°C
Wind Press
QNH
hPa
Press
MSL
hPa
Rain
since 9 am
mm
Dir
 
Spd
km/h
Gust
km/h
Spd
kts
Gust
kts
26/11:30pm 6.1 1.4 3.3 82 1.2 WNW 17 26 9 14 1021.9 1021.9 0.0
26/11:00pm 6.2 1.7 4.2 87 0.9 WNW 17 26 9 14 1021.7 1021.7 0.0
26/10:30pm 5.8 1.2 3.8 87 0.8 W 17 30 9 16 1021.4 1021.4 0.0
26/10:00pm 6.1 1.1 3.8 85 1.0 WNW 19 28 10 15 1021.0 1021.0 0.0
26/09:30pm 6.0 0.4 3.5 84 1.0 W 22 32 12 17 1020.7 1020.7 0.0
26/09:00pm 6.2 0.2 3.2 81 1.2 WNW 24 43 13 23 1019.8 1019.8 0.0
26/08:30pm 6.3 1.7 3.6 83 1.1 WNW 17 28 9 15 1019.7 1019.7 0.0
26/08:00pm 6.8 1.7 3.9 82 1.2 WNW 20 41 11 22 1019.3 1019.3 0.0
26/07:30pm 7.0 1.0 3.3 77 1.6 WNW 24 39 13 21 1018.6 1018.6 0.0
26/07:00pm 6.9 1.9 3.5 79 1.4 WNW 19 32 10 17 1018.2 1018.2 0.0
26/06:30pm 7.0 2.3 3.4 78 1.5 WNW 17 30 9 16 1017.6 1017.6 0.0
26/06:00pm 7.0 2.3 3.3 77 1.6 WNW 17 26 9 14 1017.0 1017.0 0.0
26/05:30pm 7.1 2.4 3.3 77 1.6 WNW 17 28 9 15 1016.5 1016.5 0.0
26/05:00pm 7.6 0.8 3.3 74 1.8 WNW 28 39 15 21 1016.4 1016.4 0.0
26/04:32pm 8.1 0.5 3.0 70 2.2 W 32 50 17 27 1015.8 1015.8 0.0
26/04:30pm 8.1 0.3 2.8 69 2.2 W 33 50 18 27 1015.8 1015.8 0.0
26/04:20pm 8.4 1.2 3.1 69 2.3 WNW 30 54 16 29 1015.6 1015.6 0.0
26/04:00pm 8.5 1.6 2.7 67 2.4 W 28 44 15 24 1015.3 1015.3 0.0
26/03:35pm 9.1 2.4 3.5 68 2.4 W 28 52 15 28 1015.3 1015.3 0.0
26/03:30pm 9.0 2.6 3.2 67 2.5 W 26 52 14 28 1015.3 1015.3 0.0
26/03:00pm 8.5 0.9 2.7 67 2.4 W 32 61 17 33 1014.8 1014.8 0.0
26/02:43pm 9.6 2.9 3.8 67 2.5 WNW 28 48 15 26 1013.9 1013.9 0.0
26/02:30pm 9.4 3.6 4.4 71 2.2 WNW 24 39 13 21 1013.7 1013.7 0.0
26/02:00pm 8.4 1.6 3.3 70 2.2 WNW 28 39 15 21 1013.8 1013.8 0.0
26/01:30pm 8.4 0.3 3.1 69 2.3 WNW 35 61 19 33 1013.3 1013.3 0.0
26/01:00pm 6.8 -1.6 3.9 82 1.2 WNW 37 65 20 35 1013.0 1013.0 0.0
26/12:46pm 7.9 0.3 3.0 71 2.1 WNW 32 54 17 29 1013.0 1013.0 0.0
26/12:30pm 7.6 1.0 4.2 79 1.5 WNW 28 43 15 23 1013.0 1013.0 0.0
26/12:07pm 7.2 0.7 4.9 85 1.0 WNW 28 46 15 25 1013.7 1013.7 0.0
26/12:00pm 8.1 2.0 4.7 79 1.5 WNW 26 44 14 24 1013.6 1013.6 0.0
26/11:30am 6.5 -0.8 4.5 87 0.9 W 32 54 17 29 1013.7 1013.7 0.0
26/11:00am 8.6 1.0 2.8 67 2.5 WNW 32 52 17 28 1012.9 1012.9 0.0
26/10:51am 8.2 0.9 2.7 68 2.3 WNW 30 52 16 28 1013.1 1013.1 0.0
26/10:30am 7.4 2.1 4.9 84 1.1 WNW 22 46 12 25 1013.1 1013.1 0.0
26/10:04am 7.5 1.0 4.5 81 1.3 WNW 28 54 15 29 1012.3 1012.3 0.0
26/10:00am 7.3 0.7 4.1 80 1.4 WNW 28 41 15 22 1012.3 1012.3 0.0
26/09:45am 6.9 -0.1 4.2 83 1.2 WNW 30 50 16 27 1012.5 1012.5 0.0
26/09:30am 7.2 2.0 3.6 78 1.5 WNW 20 33 11 18 1012.2 1012.2 0.0
26/09:03am 7.6 0.7 2.5 70 2.1 WNW 28 46 15 25 1011.3 1011.3 0.0
26/09:00am 7.5 0.2 2.4 70 2.1 WNW 30 46 16 25 1011.1 1011.1 2.8
26/08:59am 7.6 0.7 2.7 71 2.0 NW 28 46 15 25 1011.2 1011.2 2.8
26/08:30am 7.1 -0.6 2.4 72 1.9 WNW 32 46 17 25 1010.5 1010.5 2.8
26/08:12am 6.9 -0.1 2.2 72 1.9 WNW 28 48 15 26 1010.4 1010.4 2.8
26/08:00am 6.8 -0.5 2.3 73 1.9 WNW 30 46 16 25 1010.2 1010.2 2.8
26/07:30am 7.0 -0.4 2.1 71 2.0 NW 30 44 16 24 1009.7 1009.7 2.8
26/07:00am 7.0 0.4 2.3 72 1.9 WNW 26 46 14 25 1009.3 1009.3 2.8
26/06:53am 7.2 0.3 2.5 72 1.9 WNW 28 46 15 25 1009.3 1009.3 2.8
26/06:30am 7.1 1.0 3.0 75 1.7 WNW 24 39 13 21 1009.3 1009.3 2.8
26/06:00am 7.5 0.6 2.6 71 2.0 WNW 28 44 15 24 1009.1 1009.1 2.8
26/05:30am 7.6 1.6 3.3 74 1.8 NW 24 37 13 20 1008.7 1008.7 2.8
26/05:00am 7.8 1.8 3.3 73 1.9 WNW 24 35 13 19 1008.5 1008.5 2.8
26/04:30am 7.9 2.4 4.1 77 1.6 WNW 22 33 12 18 1008.4 1008.4 2.8
26/04:00am 7.8 3.0 4.6 80 1.4 NW 19 33 10 18 1008.2 1008.2 2.8
26/03:30am 7.8 2.0 4.4 79 1.5 WNW 24 33 13 18 1008.1 1008.1 2.8
26/03:05am 8.2 0.9 4.6 78 1.6 WNW 32 50 17 27 1008.0 1008.0 2.8
26/03:00am 8.4 1.1 5.5 82 1.3 WNW 33 52 18 28 1008.1 1008.1 2.8
26/02:44am 9.1 2.5 6.0 81 1.4 WNW 30 50 16 27 1007.9 1007.9 2.8
26/02:30am 9.3 3.9 6.2 81 1.4 WNW 24 39 13 21 1007.9 1007.9 2.8
26/02:00am 9.3 3.8 6.0 80 1.5 NW 24 43 13 23 1007.7 1007.7 2.8
26/01:30am 9.7 4.7 8.0 89 0.8 NW 24 39 13 21 1007.5 1007.5 2.8
26/01:00am 9.3 4.3 8.1 92 0.6 NW 24 35 13 19 1007.3 1007.3 2.8
26/12:30am 9.3 4.7 8.2 93 0.5 NW 22 32 12 17 1007.6 1007.6 2.8
26/12:00am 9.5 4.6 8.4 93 0.5 WNW 24 41 13 22 1007.9 1007.9 2.4
 
Date/Time
EST
Temp
°C
App
Temp
°C
Dew
Point
Rel
Hum
%
Delta-T
°C
Wind Press
QNH
hPa
Press
MSL
hPa
Rain
since 9 am
mm
Dir
 
Spd
km/h
Gust
km/h
Spd
kts
Gust
kts
25/11:30pm 10.1 4.5 8.9 92 0.6 WNW 28 43 15 23 1007.6 1007.6 2.0
25/11:00pm 12.2 5.7 6.7 69 2.6 NNW 30 44 16 24 1006.6 1006.6 0.0
25/10:32pm 12.9 6.2 5.6 61 3.4 NNW 30 50 16 27 1006.7 1006.7 0.0
25/10:30pm 12.8 5.7 5.5 61 3.4 NNW 32 50 17 27 1006.7 1006.7 0.0
25/10:06pm 13.0 5.8 4.9 58 3.7 N 32 52 17 28 1006.8 1006.8 0.0
25/10:00pm 12.8 5.9 4.8 58 3.7 NNW 30 46 16 25 1006.7 1006.7 0.0
25/09:30pm 12.7 5.2 4.4 57 3.8 NNW 33 57 18 31 1006.5 1006.5 0.0
25/09:05pm 12.7 4.8 4.4 57 3.8 NNW 35 56 19 30 1006.9 1006.9 0.0
25/09:00pm 12.7 4.4 4.4 57 3.8 NNW 37 56 20 30 1007.1 1007.1 0.0
25/08:43pm 12.7 5.4 4.4 57 3.8 NNW 32 54 17 29 1007.2 1007.2 0.0
25/08:30pm 12.8 5.5 4.3 56 3.9 NNW 32 46 17 25 1007.6 1007.6 0.0
25/08:11pm 12.9 5.9 4.3 56 3.9 NNW 30 50 16 27 1007.5 1007.5 0.0
25/08:00pm 12.6 5.7 4.6 58 3.7 NNW 30 46 16 25 1007.6 1007.6 0.0
25/07:30pm 12.0 5.6 5.0 62 3.2 NNW 28 43 15 23 1008.0 1008.0 0.0
25/07:00pm 11.3 6.0 5.0 65 2.9 N 22 33 12 18 1008.0 1008.0 0.0
25/06:30pm 11.7 5.6 4.9 63 3.1 N 26 35 14 19 1007.9 1007.9 0.0
25/06:00pm 11.9 6.1 4.6 61 3.3 N 24 35 13 19 1008.5 1008.5 0.0
25/05:30pm 12.5 6.7 4.5 58 3.6 NNW 24 35 13 19 1009.0 1009.0 0.0
25/05:00pm 12.9 6.4 4.6 57 3.8 NNW 28 39 15 21 1009.3 1009.3 0.0
25/04:41pm 13.1 6.1 4.3 55 4.0 NNW 30 48 16 26 1009.3 1009.3 0.0
25/04:30pm 13.2 8.2 4.6 56 3.9 NNW 20 35 11 19 1009.5 1009.5 0.0
25/04:00pm 13.3 6.0 4.5 55 4.0 NNW 32 54 17 29 1009.8 1009.8 0.0
25/03:58pm 13.4 6.5 4.6 55 4.0 NNW 30 54 16 29 1009.7 1009.7 0.0
25/03:30pm 13.1 7.4 4.8 57 3.8 NNW 24 44 13 24 1009.9 1009.9 0.0
25/03:00pm 13.4 7.6 4.6 55 4.1 NNW 24 41 13 22 1010.3 1010.3 0.0
25/02:31pm 13.2 6.6 4.4 55 4.0 NNW 28 48 15 26 1010.5 1010.5 0.0
25/02:30pm 13.2 7.0 4.4 55 4.0 NNW 26 48 14 26 1010.5 1010.5 0.0
25/02:00pm 13.5 6.9 4.4 54 4.2 NNW 28 43 15 23 1010.6 1010.6 0.0
25/01:30pm 13.5 7.3 4.1 53 4.3 NNW 26 37 14 20 1010.5 1010.5 0.0
25/01:00pm 13.1 8.2 5.0 58 3.8 NNW 20 32 11 17 1011.4 1011.4 0.0
25/12:30pm 12.2 6.8 4.4 59 3.5 NW 22 33 12 18 1012.3 1012.3 0.0
25/12:00pm 12.4 7.2 5.3 62 3.3 NNW 22 37 12 20 1013.0 1013.0 0.0
25/11:30am 12.2 7.4 5.4 63 3.2 NW 20 39 11 21 1013.4 1013.4 0.0

Other Formats:

Comma delimited format used in spreadsheet applications
http://www.bom.gov.au/fwo/IDV60801/IDV60801.94857.axf

JavaScript Object Notation format (JSON) in row-major order
http://www.bom.gov.au/fwo/IDV60801/IDV60801.94857.json